Time;durP1;ratioP1;P1;durP2;ratioP2;P2;SDS_P1;SDS_P2;PMS_P1;PMS_P2;Temp;Humidity;BMP_temperature;BMP_pressure;BME280_temperature;BME280_humidity;BME280_pressure;Samples;Min_cycle;Max_cycle;Signal;HPM_P1;HPM_P2
2024/04/01 00:01:50;;;;;;;;;11.67;11.67;;;;;;;;5101025;27;45322;-75
2024/04/01 00:04:15;;;;;;;;;16.33;13.67;;;;;;;;5099838;27;45890;-74
2024/04/01 00:06:40;;;;;;;;;11.67;11.67;;;;;;;;5100984;27;45806;-75
2024/04/01 00:09:05;;;;;;;;;15.33;15.33;;;;;;;;5100641;27;45321;-75
2024/04/01 00:11:31;;;;;;;;;16.00;15.33;;;;;;;;5100765;27;45461;-75
2024/04/01 00:13:56;;;;;;;;;12.00;11.67;;;;;;;;5099696;27;45797;-75
2024/04/01 00:16:21;;;;;;;;;11.00;9.33;;;;;;;;5100840;27;45856;-75
2024/04/01 00:18:46;;;;;;;;;13.00;11.00;;;;;;;;5099346;27;47309;-74
2024/04/01 00:21:12;;;;;;;;;9.00;8.00;;;;;;;;5100628;27;45451;-75
2024/04/01 00:23:37;;;;;;;;;16.00;16.00;;;;;;;;5099604;27;45487;-74
2024/04/01 00:26:03;;;;;;;;;12.67;11.67;;;;;;;;5099086;27;47252;-75
2024/04/01 00:28:28;;;;;;;;;13.67;13.67;;;;;;;;5099009;27;47991;-74
2024/04/01 00:30:53;;;;;;;;;11.00;11.00;;;;;;;;5100568;27;45256;-74
2024/04/01 00:33:18;;;;;;;;;13.67;13.00;;;;;;;;5099442;27;45542;-74
2024/04/01 00:35:45;;;;;;;;;10.67;10.67;;;;;;;;5100208;27;45432;-74
2024/04/01 00:38:10;;;;;;;;;12.00;12.00;;;;;;;;5100436;27;45268;-74
2024/04/01 00:40:36;;;;;;;;;14.67;14.00;;;;;;;;5098981;27;46064;-74
2024/04/01 00:43:07;;;;;;;;;12.33;11.67;;;;;;;;5100313;27;45496;-74
2024/04/01 00:45:35;;;;;;;;;13.00;13.00;;;;;;;;5100314;27;45224;-74
2024/04/01 00:48:01;;;;;;;;;11.33;11.33;;;;;;;;5100223;27;46303;-75
2024/04/01 00:50:30;;;;;;;;;12.00;12.00;;;;;;;;5100194;27;45245;-75
2024/04/01 00:52:56;;;;;;;;;12.00;12.00;;;;;;;;5100076;27;45465;-74
2024/04/01 00:55:22;;;;;;;;;12.00;12.00;;;;;;;;5084327;27;45488;-74
2024/04/01 00:57:48;;;;;;;;;11.00;10.67;;;;;;;;5089601;27;47577;-74
2024/04/01 01:00:13;;;;;;;;;14.00;12.00;;;;;;;;5098759;27;45675;-74
2024/04/01 01:02:38;;;;;;;;;12.67;12.67;;;;;;;;5100288;27;45246;-74
2024/04/01 01:05:04;;;;;;;;;15.00;14.00;;;;;;;;5099965;27;45168;-74
2024/04/01 01:07:30;;;;;;;;;12.00;11.67;;;;;;;;5098642;27;48734;-74
2024/04/01 01:09:55;;;;;;;;;12.00;11.67;;;;;;;;5094740;27;45298;-74
2024/04/01 01:12:20;;;;;;;;;2.00;1.00;;;;;;;;5077998;28;45178;-75
2024/04/01 01:14:48;;;;;;;;;12.67;10.33;;;;;;;;5077858;28;46455;-75
2024/04/01 01:17:13;;;;;;;;;10.33;9.00;;;;;;;;5079159;28;45479;-75
2024/04/01 01:19:38;;;;;;;;;9.67;9.00;;;;;;;;5079163;27;45452;-74
2024/04/01 01:22:04;;;;;;;;;9.67;8.67;;;;;;;;5079167;28;45438;-75
2024/04/01 01:24:30;;;;;;;;;8.67;7.67;;;;;;;;5079106;28;45307;-74
2024/04/01 01:26:55;;;;;;;;;8.00;8.00;;;;;;;;5077667;28;47097;-74
2024/04/01 01:29:21;;;;;;;;;9.33;8.67;;;;;;;;5079388;28;45384;-74
2024/04/01 01:31:46;;;;;;;;;9.67;9.67;;;;;;;;5079592;28;45832;-74
2024/04/01 01:34:11;;;;;;;;;10.00;9.67;;;;;;;;5079122;28;45486;-74
2024/04/01 01:36:36;;;;;;;;;10.67;9.67;;;;;;;;5079311;28;46463;-75
2024/04/01 01:39:05;;;;;;;;;8.67;7.67;;;;;;;;5079422;28;45281;-75
2024/04/01 01:41:30;;;;;;;;;14.33;12.00;;;;;;;;5078989;28;45294;-75
2024/04/01 01:43:56;;;;;;;;;9.00;9.00;;;;;;;;5079219;28;45263;-74
2024/04/01 01:46:21;;;;;;;;;11.67;11.00;;;;;;;;5079122;28;45261;-75
2024/04/01 01:48:46;;;;;;;;;10.67;10.00;;;;;;;;5077714;28;45921;-75
2024/04/01 01:51:11;;;;;;;;;8.67;8.67;;;;;;;;5079246;28;45631;-75
2024/04/01 01:53:36;;;;;;;;;12.00;10.00;;;;;;;;5078971;28;45280;-75
2024/04/01 01:56:01;;;;;;;;;11.00;11.00;;;;;;;;5080923;28;46326;-74
2024/04/01 01:58:26;;;;;;;;;3.00;3.00;;;;;;;;5098094;27;45461;-75
2024/04/01 02:00:52;;;;;;;;;9.33;9.00;;;;;;;;5103076;27;45492;-75
2024/04/01 02:03:17;;;;;;;;;10.33;10.33;;;;;;;;5101517;27;46041;-74
2024/04/01 02:05:42;;;;;;;;;10.00;9.00;;;;;;;;5101334;27;47159;-75
2024/04/01 02:08:07;;;;;;;;;11.00;9.00;;;;;;;;5101528;27;45423;-75
2024/04/01 02:10:35;;;;;;;;;8.67;8.33;;;;;;;;5101564;27;45280;-74
2024/04/01 02:13:02;;;;;;;;;11.00;10.33;;;;;;;;5102483;27;45320;-74
2024/04/01 02:15:27;;;;;;;;;10.00;10.00;;;;;;;;5102513;27;46045;-74
2024/04/01 02:17:53;;;;;;;;;11.67;10.00;;;;;;;;5101249;27;45203;-74
2024/04/01 02:20:18;;;;;;;;;12.00;10.33;;;;;;;;5102577;27;45281;-74
2024/04/01 02:22:44;;;;;;;;;9.00;8.33;;;;;;;;5100881;27;46291;-74
2024/04/01 02:25:09;;;;;;;;;9.00;9.00;;;;;;;;5102570;27;46642;-75
2024/04/01 02:27:35;;;;;;;;;8.67;8.67;;;;;;;;5102308;27;45268;-74
2024/04/01 02:30:00;;;;;;;;;10.00;10.00;;;;;;;;5101189;27;45530;-75
2024/04/01 02:32:25;;;;;;;;;10.00;10.00;;;;;;;;5100993;27;46174;-74
2024/04/01 02:34:50;;;;;;;;;10.00;9.00;;;;;;;;5102129;27;46537;-75
2024/04/01 02:37:15;;;;;;;;;9.00;9.00;;;;;;;;5101065;27;45155;-74
2024/04/01 02:39:41;;;;;;;;;8.67;8.67;;;;;;;;5101041;27;45343;-74
2024/04/01 02:42:06;;;;;;;;;12.33;8.67;;;;;;;;5100812;27;46055;-75
2024/04/01 02:44:31;;;;;;;;;9.00;9.00;;;;;;;;5100801;27;48455;-75
2024/04/01 02:46:56;;;;;;;;;10.00;10.00;;;;;;;;5102144;27;45353;-75
2024/04/01 02:49:21;;;;;;;;;9.00;9.00;;;;;;;;5102231;27;45558;-75
2024/04/01 02:51:47;;;;;;;;;9.00;9.00;;;;;;;;5102172;27;45533;-75
2024/04/01 02:54:12;;;;;;;;;11.00;11.00;;;;;;;;5100531;27;46615;-74
2024/04/01 02:56:37;;;;;;;;;12.00;11.00;;;;;;;;5100118;27;45398;-74
2024/04/01 02:59:09;;;;;;;;;9.00;9.00;;;;;;;;5080456;28;45440;-74
2024/04/01 03:01:34;;;;;;;;;11.33;10.33;;;;;;;;5081591;28;45281;-74
2024/04/01 03:04:00;;;;;;;;;10.67;10.67;;;;;;;;5081154;28;45172;-74
2024/04/01 03:06:27;;;;;;;;;10.67;10.00;;;;;;;;5080567;28;45215;-75
2024/04/01 03:08:52;;;;;;;;;11.00;10.33;;;;;;;;5079849;28;45424;-75
2024/04/01 03:11:17;;;;;;;;;1.00;0.00;;;;;;;;5079683;28;46122;-74
2024/04/01 03:13:42;;;;;;;;;9.00;9.00;;;;;;;;5069337;28;47082;-75
2024/04/01 03:16:07;;;;;;;;;11.00;11.00;;;;;;;;5060932;28;45401;-74
2024/04/01 03:18:32;;;;;;;;;9.33;9.33;;;;;;;;5059530;28;45372;-74
2024/04/01 03:20:58;;;;;;;;;11.00;11.00;;;;;;;;5060801;28;45327;-75
2024/04/01 03:23:23;;;;;;;;;10.67;10.67;;;;;;;;5060727;28;46101;-74
2024/04/01 03:25:50;;;;;;;;;10.00;10.00;;;;;;;;5060969;28;45320;-75
2024/04/01 03:28:16;;;;;;;;;7.33;7.33;;;;;;;;5060864;28;45333;-75
2024/04/01 03:30:41;;;;;;;;;11.33;10.67;;;;;;;;5060614;28;45297;-75
2024/04/01 03:33:06;;;;;;;;;8.33;8.33;;;;;;;;5060732;28;45322;-73
2024/04/01 03:35:32;;;;;;;;;10.67;9.33;;;;;;;;5059180;28;45285;-74
2024/04/01 03:37:57;;;;;;;;;10.00;9.00;;;;;;;;5060845;28;45240;-74
2024/04/01 03:40:22;;;;;;;;;7.00;7.00;;;;;;;;5059143;28;46366;-75
2024/04/01 03:42:47;;;;;;;;;7.33;7.33;;;;;;;;5060347;28;46302;-75
2024/04/01 03:45:12;;;;;;;;;6.00;6.00;;;;;;;;5059187;28;45332;-75
2024/04/01 03:47:38;;;;;;;;;5.00;5.00;;;;;;;;5060685;28;45605;-74
2024/04/01 03:50:05;;;;;;;;;5.33;5.33;;;;;;;;5058872;28;46093;-75
2024/04/01 03:52:30;;;;;;;;;8.00;7.00;;;;;;;;5060178;28;45289;-74
2024/04/01 03:54:55;;;;;;;;;5.00;5.00;;;;;;;;5060434;28;45588;-75
2024/04/01 03:57:20;;;;;;;;;6.00;6.00;;;;;;;;5075962;27;45520;-75
2024/04/01 03:59:46;;;;;;;;;7.67;7.00;;;;;;;;5101073;27;45428;-75
2024/04/01 04:02:11;;;;;;;;;7.00;6.67;;;;;;;;5099726;27;47051;-75
2024/04/01 04:04:36;;;;;;;;;3.00;2.67;;;;;;;;5101043;27;45388;-74
2024/04/01 04:07:01;;;;;;;;;6.33;5.33;;;;;;;;5101149;27;45284;-75
2024/04/01 04:09:27;;;;;;;;;6.00;4.00;;;;;;;;5100917;27;45311;-75
2024/04/01 04:11:52;;;;;;;;;5.67;5.67;;;;;;;;5100643;27;45396;-75
2024/04/01 04:14:18;;;;;;;;;4.33;4.33;;;;;;;;5100961;27;45267;-75
2024/04/01 04:16:44;;;;;;;;;5.67;4.33;;;;;;;;5101053;27;45331;-75
2024/04/01 04:19:09;;;;;;;;;5.00;5.00;;;;;;;;5100331;27;45385;-75
2024/04/01 04:21:34;;;;;;;;;6.00;4.33;;;;;;;;5099156;27;45914;-75
2024/04/01 04:23:59;;;;;;;;;4.67;4.67;;;;;;;;5100790;27;45314;-74
2024/04/01 04:26:24;;;;;;;;;4.00;4.00;;;;;;;;5099480;27;45444;-74
2024/04/01 04:28:50;;;;;;;;;3.67;3.67;;;;;;;;5100588;27;45358;-74
2024/04/01 04:31:15;;;;;;;;;2.67;2.67;;;;;;;;5100453;27;46588;-75
2024/04/01 04:33:40;;;;;;;;;2.67;2.67;;;;;;;;5099244;27;45421;-75
2024/04/01 04:36:06;;;;;;;;;3.33;3.33;;;;;;;;5099460;27;45326;-74
2024/04/01 04:38:32;;;;;;;;;5.33;3.00;;;;;;;;5100594;27;45328;-75
2024/04/01 04:40:58;;;;;;;;;2.67;2.67;;;;;;;;5098976;27;47236;-75
2024/04/01 04:43:23;;;;;;;;;3.00;3.00;;;;;;;;5100298;27;45313;-75
2024/04/01 04:45:48;;;;;;;;;1.67;1.67;;;;;;;;5100667;27;45258;-74
2024/04/01 04:48:14;;;;;;;;;3.00;2.67;;;;;;;;5100301;27;45274;-75
2024/04/01 04:50:39;;;;;;;;;2.00;2.00;;;;;;;;5100199;27;45283;-75
2024/04/01 04:53:04;;;;;;;;;2.00;2.00;;;;;;;;5088332;27;45396;-74
2024/04/01 04:55:30;;;;;;;;;2.67;2.67;;;;;;;;5078197;28;45323;-75
2024/04/01 04:57:55;;;;;;;;;0.00;0.00;;;;;;;;5092301;27;45197;-74
2024/04/01 05:00:23;;;;;;;;;3.00;2.00;;;;;;;;5098967;27;47988;-75
2024/04/01 05:02:49;;;;;;;;;3.00;2.00;;;;;;;;5100348;27;45328;-75
2024/04/01 05:05:20;;;;;;;;;2.00;2.00;;;;;;;;5100282;27;45230;-75
2024/04/01 05:07:46;;;;;;;;;2.33;2.33;;;;;;;;5100247;27;45287;-75
2024/04/01 05:10:11;;;;;;;;;1.00;1.00;;;;;;;;5099664;27;45329;-75
2024/04/01 05:12:36;;;;;;;;;2.00;2.00;;;;;;;;5098305;27;45397;-74
2024/04/01 05:15:02;;;;;;;;;4.00;1.00;;;;;;;;5098893;27;45976;-75
2024/04/01 05:17:27;;;;;;;;;2.00;2.00;;;;;;;;5098521;27;47658;-74
2024/04/01 05:19:52;;;;;;;;;1.00;1.00;;;;;;;;5099969;27;46484;-74
2024/04/01 05:22:18;;;;;;;;;2.00;1.67;;;;;;;;5098455;27;45417;-75
2024/04/01 05:24:44;;;;;;;;;1.00;1.00;;;;;;;;5100074;27;45321;-75
2024/04/01 05:27:09;;;;;;;;;2.00;2.00;;;;;;;;5098225;27;45477;-75
2024/04/01 05:29:34;;;;;;;;;1.33;1.33;;;;;;;;5099807;27;45433;-75
2024/04/01 05:31:59;;;;;;;;;4.00;3.00;;;;;;;;5085364;27;45501;-75
2024/04/01 05:34:24;;;;;;;;;1.00;1.00;;;;;;;;5082155;28;45538;-75
2024/04/01 05:36:49;;;;;;;;;1.00;1.00;;;;;;;;5081713;28;45361;-74
2024/04/01 05:39:15;;;;;;;;;1.00;1.00;;;;;;;;5082066;28;45357;-75
2024/04/01 05:41:40;;;;;;;;;1.00;1.00;;;;;;;;5082817;28;45541;-75
2024/04/01 05:44:05;;;;;;;;;2.00;2.00;;;;;;;;5083039;28;45321;-75
2024/04/01 05:46:30;;;;;;;;;2.33;1.67;;;;;;;;5082859;28;45302;-75
2024/04/01 05:48:55;;;;;;;;;1.00;1.00;;;;;;;;5081201;28;47823;-75
2024/04/01 05:51:21;;;;;;;;;0.33;0.33;;;;;;;;5082692;28;45385;-75
2024/04/01 05:53:46;;;;;;;;;1.00;1.00;;;;;;;;5082689;28;45277;-75
2024/04/01 05:56:11;;;;;;;;;1.00;1.00;;;;;;;;5079992;28;47091;-75
2024/04/01 05:58:36;;;;;;;;;3.67;2.67;;;;;;;;5099461;27;47076;-75
2024/04/01 06:01:02;;;;;;;;;2.00;2.00;;;;;;;;5103019;27;45311;-75
2024/04/01 06:03:28;;;;;;;;;2.00;2.00;;;;;;;;5103058;27;45327;-75
2024/04/01 06:05:53;;;;;;;;;1.00;1.00;;;;;;;;5102839;27;45419;-75
2024/04/01 06:08:18;;;;;;;;;1.00;1.00;;;;;;;;5085728;27;47260;-75
2024/04/01 06:10:43;;;;;;;;;3.00;1.00;;;;;;;;5076971;28;45219;-75
2024/04/01 06:13:08;;;;;;;;;1.33;1.00;;;;;;;;5079996;28;45335;-75
2024/04/01 06:15:33;;;;;;;;;1.00;1.00;;;;;;;;5082037;28;45341;-75
2024/04/01 06:17:59;;;;;;;;;1.00;1.00;;;;;;;;5080755;28;47108;-75
2024/04/01 06:20:24;;;;;;;;;1.33;1.33;;;;;;;;5082161;28;45210;-75
2024/04/01 06:22:49;;;;;;;;;2.33;2.33;;;;;;;;5082242;28;45249;-75
2024/04/01 06:25:14;;;;;;;;;2.67;2.67;;;;;;;;5080671;28;47186;-75
2024/04/01 06:27:39;;;;;;;;;3.00;3.00;;;;;;;;5081954;28;45518;-74
2024/04/01 06:30:05;;;;;;;;;2.33;2.33;;;;;;;;5082124;28;45369;-75
2024/04/01 06:32:30;;;;;;;;;1.67;1.00;;;;;;;;5080824;28;45511;-74
2024/04/01 06:34:55;;;;;;;;;3.00;3.00;;;;;;;;5080185;28;45915;-74
2024/04/01 06:37:20;;;;;;;;;2.00;2.00;;;;;;;;5081321;28;45542;-73
2024/04/01 06:39:46;;;;;;;;;2.00;2.00;;;;;;;;5082093;28;45334;-74
2024/04/01 06:42:11;;;;;;;;;2.00;2.00;;;;;;;;5080733;28;45399;-74
2024/04/01 06:44:36;;;;;;;;;2.33;2.00;;;;;;;;5081612;28;45333;-74
2024/04/01 06:47:02;;;;;;;;;2.00;2.00;;;;;;;;5081812;28;45945;-74
2024/04/01 06:49:27;;;;;;;;;2.00;2.00;;;;;;;;5078438;28;45750;-75
2024/04/01 06:51:52;;;;;;;;;2.00;2.00;;;;;;;;5075500;28;45510;-75
2024/04/01 06:54:17;;;;;;;;;2.00;1.00;;;;;;;;5077019;28;46119;-75
2024/04/01 06:56:42;;;;;;;;;1.33;1.33;;;;;;;;5083654;27;45349;-75
2024/04/01 06:59:07;;;;;;;;;0.67;0.67;;;;;;;;5101166;27;45581;-74
2024/04/01 07:01:33;;;;;;;;;1.67;1.00;;;;;;;;5102304;27;45367;-75
2024/04/01 07:03:58;;;;;;;;;3.33;3.00;;;;;;;;5101816;27;45307;-75
2024/04/01 07:06:23;;;;;;;;;2.00;1.00;;;;;;;;5102008;27;46442;-75
2024/04/01 07:08:48;;;;;;;;;1.00;1.00;;;;;;;;5100648;27;45630;-75
2024/04/01 07:11:13;;;;;;;;;1.33;1.33;;;;;;;;5099733;27;45293;-75
2024/04/01 07:13:39;;;;;;;;;3.67;2.67;;;;;;;;5059505;28;47400;-75
2024/04/01 07:16:04;;;;;;;;;2.00;2.00;;;;;;;;5072279;28;46907;-74
2024/04/01 07:18:30;;;;;;;;;1.33;1.33;;;;;;;;5081222;28;45339;-75
2024/04/01 07:20:55;;;;;;;;;2.67;2.67;;;;;;;;5080564;28;45487;-77
2024/04/01 07:23:21;;;;;;;;;2.67;2.67;;;;;;;;5077739;28;45342;-75
2024/04/01 07:25:46;;;;;;;;;2.33;2.00;;;;;;;;5081192;28;45553;-75
2024/04/01 07:28:12;;;;;;;;;0.00;0.00;;;;;;;;5079677;28;45880;-75
2024/04/01 07:30:37;;;;;;;;;2.00;2.00;;;;;;;;5081271;28;45769;-75
2024/04/01 07:33:03;;;;;;;;;1.00;1.00;;;;;;;;5081078;28;45298;-75
2024/04/01 07:35:28;;;;;;;;;2.33;2.00;;;;;;;;5080593;28;45266;-74
2024/04/01 07:37:54;;;;;;;;;1.00;1.00;;;;;;;;5073492;28;45244;-75
2024/04/01 07:40:19;;;;;;;;;1.33;1.00;;;;;;;;5065944;28;45184;-76
2024/04/01 07:42:45;;;;;;;;;2.67;1.00;;;;;;;;5060473;28;45184;-75
2024/04/01 07:45:10;;;;;;;;;1.00;1.00;;;;;;;;5060542;28;46109;-76
2024/04/01 07:47:36;;;;;;;;;1.00;1.00;;;;;;;;5060497;28;45230;-75
2024/04/01 07:50:01;;;;;;;;;1.00;1.00;;;;;;;;5060537;28;45276;-75
2024/04/01 07:52:26;;;;;;;;;1.00;1.00;;;;;;;;5060009;28;45417;-75
2024/04/01 07:54:51;;;;;;;;;2.00;2.00;;;;;;;;5060117;28;45462;-76
2024/04/01 07:57:17;;;;;;;;;1.33;1.33;;;;;;;;5074696;27;45358;-76
2024/04/01 07:59:43;;;;;;;;;3.33;3.00;;;;;;;;5099957;27;45285;-75
2024/04/01 08:02:09;;;;;;;;;2.67;2.67;;;;;;;;5101178;27;45583;-76
2024/04/01 08:04:34;;;;;;;;;1.67;1.67;;;;;;;;5100498;27;45386;-76
2024/04/01 08:06:59;;;;;;;;;2.67;2.33;;;;;;;;5101038;27;45399;-75
2024/04/01 08:09:24;;;;;;;;;1.67;1.67;;;;;;;;5099812;27;45408;-75
2024/04/01 08:11:50;;;;;;;;;3.00;1.33;;;;;;;;5099296;27;47176;-75
2024/04/01 08:14:16;;;;;;;;;2.00;2.00;;;;;;;;5099470;27;47292;-77
2024/04/01 08:16:44;;;;;;;;;3.33;3.00;;;;;;;;5099322;27;46228;-75
2024/04/01 08:19:10;;;;;;;;;2.00;2.00;;;;;;;;5100674;27;45421;-75
2024/04/01 08:21:35;;;;;;;;;1.00;1.00;;;;;;;;5100394;27;45269;-75
2024/04/01 08:24:00;;;;;;;;;2.00;2.00;;;;;;;;5100345;27;45513;-75
2024/04/01 08:26:26;;;;;;;;;2.33;2.33;;;;;;;;5093850;27;45501;-76
2024/04/01 08:28:51;;;;;;;;;3.00;3.00;;;;;;;;5078564;28;45390;-76
2024/04/01 08:31:16;;;;;;;;;2.00;2.00;;;;;;;;5078283;28;46058;-76
2024/04/01 08:33:41;;;;;;;;;2.00;2.00;;;;;;;;5078297;28;48216;-76
2024/04/01 08:36:06;;;;;;;;;2.33;1.67;;;;;;;;5079818;28;45249;-76
2024/04/01 08:38:32;;;;;;;;;2.00;1.00;;;;;;;;5079957;28;45563;-75
2024/04/01 08:40:58;;;;;;;;;1.00;1.00;;;;;;;;5079570;28;45456;-76
2024/04/01 08:43:33;;;;;;;;;3.00;2.00;;;;;;;;5079777;28;46375;-77
2024/04/01 08:45:58;;;;;;;;;2.00;2.00;;;;;;;;5078147;28;46016;-75
2024/04/01 08:48:26;;;;;;;;;2.00;2.00;;;;;;;;5079816;28;45216;-75
2024/04/01 08:50:56;;;;;;;;;3.00;1.33;;;;;;;;5078315;28;46044;-75
2024/04/01 08:53:31;;;;;;;;;6.00;5.00;;;;;;;;5077872;28;47166;-75
2024/04/01 08:55:57;;;;;;;;;3.00;2.00;;;;;;;;5074357;28;45252;-76
2024/04/01 08:58:22;;;;;;;;;2.67;1.00;;;;;;;;5070562;27;45475;-76
2024/04/01 09:00:47;;;;;;;;;2.00;2.00;;;;;;;;5068638;28;45515;-77
2024/04/01 09:03:13;;;;;;;;;2.00;2.00;;;;;;;;5066571;28;47487;-76
2024/04/01 09:05:38;;;;;;;;;2.33;2.33;;;;;;;;5077083;28;45279;-76
2024/04/01 09:08:04;;;;;;;;;1.00;1.00;;;;;;;;5082909;28;45456;-76
2024/04/01 09:10:29;;;;;;;;;2.33;2.33;;;;;;;;5080367;28;45960;-75
2024/04/01 09:12:55;;;;;;;;;4.00;4.00;;;;;;;;5082829;28;45784;-75
2024/04/01 09:15:23;;;;;;;;;1.67;1.67;;;;;;;;5074944;28;45322;-75
2024/04/01 09:17:48;;;;;;;;;3.00;2.00;;;;;;;;5061488;28;45272;-75
2024/04/01 09:20:13;;;;;;;;;2.00;2.00;;;;;;;;5061189;28;46349;-76
2024/04/01 09:22:39;;;;;;;;;2.00;2.00;;;;;;;;5060943;28;47307;-76
2024/04/01 09:25:05;;;;;;;;;2.67;2.00;;;;;;;;5062641;28;45306;-78
2024/04/01 09:27:30;;;;;;;;;4.00;3.00;;;;;;;;5060903;28;45309;-77
2024/04/01 09:29:55;;;;;;;;;1.00;1.00;;;;;;;;5062492;28;45620;-78
2024/04/01 09:32:20;;;;;;;;;2.00;2.00;;;;;;;;5062539;28;45338;-79
2024/04/01 09:34:45;;;;;;;;;1.00;1.00;;;;;;;;5061956;28;45360;-78
2024/04/01 09:37:11;;;;;;;;;1.67;1.67;;;;;;;;5062684;28;45260;-76
2024/04/01 09:39:36;;;;;;;;;2.67;2.00;;;;;;;;5062173;28;45338;-76
2024/04/01 09:42:02;;;;;;;;;3.00;3.00;;;;;;;;5072572;28;45324;-78
2024/04/01 09:44:31;;;;;;;;;1.33;1.33;;;;;;;;5070935;28;45383;-78
2024/04/01 09:46:56;;;;;;;;;0.67;0.67;;;;;;;;5076471;28;45390;-76
2024/04/01 09:49:21;;;;;;;;;1.67;1.67;;;;;;;;5065148;28;46462;-77
2024/04/01 09:51:47;;;;;;;;;0.33;0.33;;;;;;;;5060284;28;47097;-76
2024/04/01 09:54:12;;;;;;;;;1.67;0.33;;;;;;;;5061579;28;45371;-76
2024/04/01 09:57:02;;;;;;;;;0.00;0.00;;;;;;;;5065278;27;45355;-75
2024/04/01 09:59:36;;;;;;;;;0.33;0.33;;;;;;;;5091348;27;47069;-78
2024/04/01 10:02:01;;;;;;;;;0.00;0.00;;;;;;;;5073975;28;45670;-77
2024/04/01 10:04:45;;;;;;;;;1.67;1.67;;;;;;;;5082351;28;45273;-76
2024/04/01 10:07:26;;;;;;;;;1.00;0.00;;;;;;;;5081104;28;45287;-77
2024/04/01 10:10:10;;;;;;;;;2.00;2.00;;;;;;;;5080585;28;46079;-77
2024/04/01 10:12:38;;;;;;;;;2.33;2.33;;;;;;;;5081701;28;46367;-77
2024/04/01 10:15:15;;;;;;;;;2.67;2.67;;;;;;;;5082028;28;45340;-77
2024/04/01 10:17:46;;;;;;;;;1.00;0.67;;;;;;;;5081720;28;45153;-77
2024/04/01 10:20:11;;;;;;;;;1.33;1.33;;;;;;;;5078116;28;45613;-78
2024/04/01 10:22:36;;;;;;;;;1.33;1.33;;;;;;;;5080777;28;46172;-78
2024/04/01 10:25:07;;;;;;;;;1.33;1.33;;;;;;;;5070260;27;45313;-76
2024/04/01 10:28:00;;;;;;;;;0.00;0.00;;;;;;;;5080583;27;45401;-76
2024/04/01 10:30:28;;;;;;;;;2.33;2.00;;;;;;;;5082814;27;45504;-75
2024/04/01 10:33:25;;;;;;;;;0.00;0.00;;;;;;;;5072238;28;45369;-76
2024/04/01 10:36:04;;;;;;;;;0.00;0.00;;;;;;;;5059583;28;46135;-78
2024/04/01 10:38:29;;;;;;;;;0.00;0.00;;;;;;;;5061536;28;45304;-78
2024/04/01 10:41:13;;;;;;;;;0.00;0.00;;;;;;;;5059881;28;45861;-77
2024/04/01 10:43:44;;;;;;;;;0.00;0.00;;;;;;;;5060207;28;45614;-77
2024/04/01 10:46:24;;;;;;;;;0.67;0.67;;;;;;;;5065215;28;46302;-78
2024/04/01 10:49:07;;;;;;;;;0.00;0.00;;;;;;;;5081341;28;45346;-77
2024/04/01 10:51:51;;;;;;;;;0.00;0.00;;;;;;;;5079997;28;47449;-78
2024/04/01 10:54:18;;;;;;;;;0.00;0.00;;;;;;;;5077719;28;46576;-78
2024/04/01 10:57:03;;;;;;;;;0.00;0.00;;;;;;;;5082428;27;45420;-79
2024/04/01 10:59:44;;;;;;;;;0.00;0.00;;;;;;;;5073438;27;45323;-79
2024/04/01 11:02:21;;;;;;;;;2.00;2.00;;;;;;;;5063501;28;45370;-79
2024/04/01 11:04:53;;;;;;;;;1.00;1.00;;;;;;;;5060530;28;45308;-76
2024/04/01 11:07:24;;;;;;;;;0.33;0.00;;;;;;;;5060950;28;45389;-77
2024/04/01 11:09:59;;;;;;;;;2.00;0.33;;;;;;;;5060907;28;45552;-77
2024/04/01 11:12:35;;;;;;;;;0.67;0.67;;;;;;;;5062457;28;47013;-76
2024/04/01 11:15:03;;;;;;;;;1.00;1.00;;;;;;;;5064496;28;47117;-78
2024/04/01 11:17:28;;;;;;;;;1.00;1.00;;;;;;;;5069287;28;45603;-76
2024/04/01 11:20:12;;;;;;;;;1.67;0.67;;;;;;;;5067753;27;46549;-77
2024/04/01 11:22:57;;;;;;;;;0.00;0.00;;;;;;;;5066096;28;46202;-76
2024/04/01 11:25:41;;;;;;;;;0.00;0.00;;;;;;;;5068873;28;47103;-77
2024/04/01 11:28:15;;;;;;;;;2.00;0.00;;;;;;;;5069030;28;45390;-76
2024/04/01 11:30:43;;;;;;;;;1.00;1.00;;;;;;;;5076465;28;45432;-77
2024/04/01 11:33:09;;;;;;;;;1.33;0.33;;;;;;;;5080314;28;45373;-77
2024/04/01 11:35:44;;;;;;;;;0.00;0.00;;;;;;;;5078477;28;47096;-77
2024/04/01 11:38:09;;;;;;;;;0.00;0.00;;;;;;;;5074523;28;45484;-76
2024/04/01 11:40:35;;;;;;;;;0.25;0.25;;;;;;;;5071407;28;45276;-75
2024/04/01 11:43:04;;;;;;;;;1.00;1.00;;;;;;;;5068396;28;46318;-76
2024/04/01 11:45:36;;;;;;;;;0.50;0.50;;;;;;;;5067768;28;45620;-74
2024/04/01 11:48:01;;;;;;;;;1.00;1.00;;;;;;;;5076694;28;45477;-75
2024/04/01 11:50:26;;;;;;;;;2.33;1.33;;;;;;;;5076812;27;45666;-79
2024/04/01 11:53:05;;;;;;;;;0.33;0.33;;;;;;;;5076250;28;47237;-77
2024/04/01 11:55:31;;;;;;;;;4.33;3.00;;;;;;;;5084520;27;45642;-76
2024/04/01 11:58:09;;;;;;;;;6.00;4.67;;;;;;;;5087944;27;45482;-75
2024/04/01 12:00:34;;;;;;;;;2.00;2.00;;;;;;;;5075892;27;45461;-77
2024/04/01 12:02:59;;;;;;;;;0.00;0.00;;;;;;;;5067694;28;45390;-75
2024/04/01 12:05:24;;;;;;;;;1.25;0.25;;;;;;;;5071132;27;46701;-76
2024/04/01 12:07:50;;;;;;;;;1.00;1.00;;;;;;;;5068477;28;45250;-77
2024/04/01 12:10:16;;;;;;;;;2.50;2.50;;;;;;;;5065617;27;45437;-76
2024/04/01 12:12:41;;;;;;;;;4.00;3.67;;;;;;;;5063940;28;47170;-75
2024/04/01 12:15:08;;;;;;;;;0.00;0.00;;;;;;;;5064029;27;46223;-75
2024/04/01 12:17:35;;;;;;;;;0.00;0.00;;;;;;;;5068990;28;45378;-76
2024/04/01 12:20:01;;;;;;;;;0.00;0.00;;;;;;;;5068152;27;45564;-79
2024/04/01 12:22:27;;;;;;;;;0.00;0.00;;;;;;;;5067144;28;45417;-77
2024/04/01 12:24:55;;;;;;;;;0.00;0.00;;;;;;;;5067160;28;46948;-79
2024/04/01 12:27:21;;;;;;;;;0.00;0.00;;;;;;;;5059970;28;45261;-77
2024/04/01 12:29:47;;;;;;;;;2.00;2.00;;;;;;;;5068346;28;45482;-76
2024/04/01 12:32:12;;;;;;;;;1.00;0.00;;;;;;;;5078965;28;45349;-75
2024/04/01 12:34:41;;;;;;;;;1.00;0.75;;;;;;;;5078132;27;45674;-76
2024/04/01 12:37:08;;;;;;;;;0.00;0.00;;;;;;;;5065661;28;45513;-75
2024/04/01 12:39:40;;;;;;;;;2.25;0.25;;;;;;;;5069979;27;45270;-76
2024/04/01 12:42:05;;;;;;;;;1.25;0.00;;;;;;;;5066845;28;45605;-77
2024/04/01 12:44:31;;;;;;;;;1.50;1.50;;;;;;;;5073689;27;47480;-77
2024/04/01 12:46:56;;;;;;;;;0.00;0.00;;;;;;;;5069059;28;45490;-76
2024/04/01 12:49:22;;;;;;;;;0.00;0.00;;;;;;;;5066754;27;45698;-77
2024/04/01 12:51:47;;;;;;;;;0.00;0.00;;;;;;;;5069106;28;45928;-75
2024/04/01 12:54:13;;;;;;;;;0.00;0.00;;;;;;;;5070262;27;46534;-77
2024/04/01 12:56:41;;;;;;;;;0.00;0.00;;;;;;;;5079262;27;45554;-76
2024/04/01 12:59:15;;;;;;;;;0.00;0.00;;;;;;;;5067774;27;45421;-77
2024/04/01 13:01:49;;;;;;;;;0.00;0.00;;;;;;;;5078845;28;45484;-77
2024/04/01 13:04:32;;;;;;;;;0.00;0.00;;;;;;;;5077075;27;47140;-78
2024/04/01 13:07:01;;;;;;;;;2.50;1.00;;;;;;;;5060462;28;45730;-78
2024/04/01 13:09:30;;;;;;;;;0.00;0.00;;;;;;;;5064841;27;45358;-76
2024/04/01 13:12:10;;;;;;;;;0.00;0.00;;;;;;;;5078874;28;45498;-77
2024/04/01 13:14:54;;;;;;;;;0.00;0.00;;;;;;;;5076370;27;47431;-76
2024/04/01 13:17:26;;;;;;;;;0.00;0.00;;;;;;;;5072196;28;45581;-77
2024/04/01 13:20:01;;;;;;;;;0.00;0.00;;;;;;;;5069669;27;45359;-78
2024/04/01 13:22:33;;;;;;;;;0.00;0.00;;;;;;;;5078463;28;45641;-77
2024/04/01 13:25:00;;;;;;;;;0.00;0.00;;;;;;;;5076481;27;48409;-77
2024/04/01 13:27:41;;;;;;;;;0.00;0.00;;;;;;;;5067786;28;45581;-75
2024/04/01 13:30:19;;;;;;;;;2.00;0.00;;;;;;;;5074406;28;45397;-75
2024/04/01 13:32:58;;;;;;;;;1.00;0.00;;;;;;;;5068239;28;45325;-76
2024/04/01 13:35:47;;;;;;;;;0.25;0.00;;;;;;;;5066457;28;46459;-78
2024/04/01 13:38:38;;;;;;;;;0.25;0.25;;;;;;;;5048575;28;45664;-76
2024/04/01 13:41:13;;;;;;;;;0.00;0.00;;;;;;;;5065015;28;45332;-77
2024/04/01 13:43:57;;;;;;;;;0.00;0.00;;;;;;;;5076982;28;47644;-76
2024/04/01 13:46:33;;;;;;;;;0.00;0.00;;;;;;;;5078569;28;45645;-77
2024/04/01 13:49:16;;;;;;;;;0.25;0.25;;;;;;;;5061079;28;45371;-77
2024/04/01 13:51:44;;;;;;;;;2.33;2.33;;;;;;;;5060132;28;45288;-76
2024/04/01 13:54:22;;;;;;;;;3.00;3.00;;;;;;;;5059696;28;47145;-76
2024/04/01 13:56:56;;;;;;;;;5.33;5.33;;;;;;;;5063651;27;48120;-78
2024/04/01 13:59:31;;;;;;;;;3.67;3.00;;;;;;;;5067522;28;45690;-79
2024/04/01 14:02:16;;;;;;;;;2.33;1.00;;;;;;;;5072702;28;45456;-78
2024/04/01 14:04:56;;;;;;;;;0.00;0.00;;;;;;;;5051651;28;45382;-77
2024/04/01 14:07:21;;;;;;;;;0.25;0.25;;;;;;;;5072246;28;45379;-78
2024/04/01 14:10:05;;;;;;;;;1.00;1.00;;;;;;;;5080989;28;45339;-77
2024/04/01 14:12:45;;;;;;;;;2.50;1.00;;;;;;;;5083945;28;45302;-78
2024/04/01 14:15:22;;;;;;;;;0.00;0.00;;;;;;;;5068722;28;46510;-77
2024/04/01 14:17:50;;;;;;;;;0.50;0.50;;;;;;;;5060347;28;47262;-77
2024/04/01 14:20:23;;;;;;;;;2.33;2.33;;;;;;;;5070082;28;45353;-78
2024/04/01 14:22:48;;;;;;;;;0.00;0.00;;;;;;;;5070863;28;45337;-78
2024/04/01 14:25:13;;;;;;;;;0.00;0.00;;;;;;;;5069134;28;46110;-79
2024/04/01 14:27:39;;;;;;;;;0.00;0.00;;;;;;;;5071035;28;45280;-77
2024/04/01 14:30:05;;;;;;;;;0.00;0.00;;;;;;;;5067949;28;45508;-78
2024/04/01 14:32:30;;;;;;;;;1.00;0.00;;;;;;;;5061483;28;45334;-78
2024/04/01 14:34:55;;;;;;;;;0.00;0.00;;;;;;;;5070805;28;45314;-78
2024/04/01 14:37:21;;;;;;;;;0.00;0.00;;;;;;;;5064006;28;48361;-78
2024/04/01 14:39:46;;;;;;;;;0.00;0.00;;;;;;;;5081327;28;45327;-79
2024/04/01 14:42:12;;;;;;;;;0.00;0.00;;;;;;;;5080195;28;45801;-78